Time;durP1;ratioP1;P1;durP2;ratioP2;P2;SDS_P1;SDS_P2;PMS_P1;PMS_P2;Temp;Humidity;BMP_temperature;BMP_pressure;BME280_temperature;BME280_humidity;BME280_pressure;Samples;Min_cycle;Max_cycle;Signal;HPM_P1;HPM_P2
2022/06/08 00:02:19;;;;;;;;;;;;;;;-142.75;100.00;76458.09;5013968;28;20387;-68
2022/06/08 00:04:44;;;;;;;;;;;;;;;-142.75;100.00;76458.09;5013586;28;20387;-68
2022/06/08 00:07:09;;;;;;;;;;;;;;;-142.75;100.00;76456.13;5013947;28;19922;-69
2022/06/08 00:09:35;;;;;;;;;;;;;;;-142.75;100.00;76452.19;5013280;28;19918;-68
2022/06/08 00:12:01;;;;;;;;;;;;;;;-142.75;100.00;76452.19;5013852;28;19975;-67
2022/06/08 00:14:26;;;;;;;;;;;;;;;-142.75;100.00;76448.25;5013747;28;19921;-69
2022/06/08 00:16:51;;;;;;;;;;;;;;;-142.75;100.00;76442.34;5013638;28;19917;-68
2022/06/08 00:19:16;;;;;;;;;;;;;;;-142.75;100.00;76440.38;5012898;28;19917;-67
2022/06/08 00:21:42;;;;;;;;;;;;;;;-142.75;100.00;76444.31;5013353;28;19963;-69
2022/06/08 00:24:07;;;;;;;;;;;;;;;-142.75;100.00;76444.31;5012875;28;20004;-67
2022/06/08 00:26:32;;;;;;;;;;;;;;;-142.75;100.00;76432.50;5012784;28;19925;-68
2022/06/08 00:28:58;;;;;;;;;;;;;;;-142.75;100.00;76428.56;5012477;28;19928;-68
2022/06/08 00:31:23;;;;;;;;;;;;;;;-142.75;100.00;76436.44;5012976;28;19917;-68
2022/06/08 00:33:48;;;;;;;;;;;;;;;-142.75;100.00;76430.53;5012801;28;19924;-69
2022/06/08 00:36:13;;;;;;;;;;;;;;;-142.75;100.00;76424.63;5012631;28;19978;-68
2022/06/08 00:38:38;;;;;;;;;;;;;;;-142.75;100.00;76422.66;5012478;28;19918;-67
2022/06/08 00:41:22;;;;;;;;;;;;;;;-142.75;100.00;76420.69;5012694;28;20301;-68
2022/06/08 00:43:47;;;;;;;;;;;;;;;-142.75;100.00;76412.81;5013048;28;19917;-68
2022/06/08 00:46:12;;;;;;;;;;;;;;;-142.75;100.00;76408.88;5013050;28;19918;-69
2022/06/08 00:48:41;;;;;;;;;;;;;;;-142.75;100.00;76414.78;5012834;28;19921;-67
2022/06/08 00:51:06;;;;;;;;;;;;;;;-142.75;100.00;76412.81;5012972;28;20330;-68
2022/06/08 00:53:39;;;;;;;;;;;;;;;-142.75;100.00;76404.94;5012874;28;20004;-67
2022/06/08 00:56:06;;;;;;;;;;;;;;;-142.75;100.00;76408.88;5012615;28;19925;-69
2022/06/08 00:58:33;;;;;;;;;;;;;;;-142.75;100.00;76402.97;4995076;28;20011;-68
2022/06/08 01:00:58;;;;;;;;;;;;;;;-142.75;100.00;76401.00;5013160;28;19957;-69
2022/06/08 01:03:24;;;;;;;;;;;;;;;-142.75;100.00;76399.03;5013027;28;20326;-68
2022/06/08 01:05:55;;;;;;;;;;;;;;;-142.75;100.00;76401.00;5012565;28;19925;-69
2022/06/08 01:08:30;;;;;;;;;;;;;;;-142.75;100.00;76393.13;5012454;28;19922;-68
2022/06/08 01:10:56;;;;;;;;;;;;;;;-142.75;100.00;76389.19;5012546;28;19924;-68
2022/06/08 01:13:22;;;;;;;;;;;;;;;-142.75;100.00;76391.16;5012760;28;20012;-70
2022/06/08 01:15:47;;;;;;;;;;;;;;;-142.75;100.00;76389.19;5012483;28;20020;-69
2022/06/08 01:18:13;;;;;;;;;;;;;;;-142.75;100.00;76385.25;5012336;28;19952;-69
2022/06/08 01:20:48;;;;;;;;;;;;;;;-142.75;100.00;76381.31;5012582;28;20394;-69
2022/06/08 01:23:14;;;;;;;;;;;;;;;-142.75;100.00;76373.44;5012369;28;20036;-69
2022/06/08 01:25:55;;;;;;;;;;;;;;;-142.75;100.00;76375.41;5012407;28;20004;-66
2022/06/08 01:28:44;;;;;;;;;;;;;;;-142.75;100.00;76369.50;5012154;28;19975;-67
2022/06/08 01:31:18;;;;;;;;;;;;;;;-142.75;100.00;76371.47;5012908;28;19917;-66
2022/06/08 01:34:03;;;;;;;;;;;;;;;-142.75;100.00;76369.50;5012142;28;19917;-69
2022/06/08 01:36:40;;;;;;;;;;;;;;;-142.75;100.00;76357.69;5012236;28;20004;-69
2022/06/08 01:39:07;;;;;;;;;;;;;;;-142.75;100.00;76361.63;5011948;28;20303;-69
2022/06/08 01:41:56;;;;;;;;;;;;;;;-142.75;100.00;76359.66;5011950;28;19948;-69
2022/06/08 01:44:27;;;;;;;;;;;;;;;-142.75;100.00;76361.63;4983740;28;19925;-68
2022/06/08 01:47:03;;;;;;;;;;;;;;;-142.75;100.00;76361.63;5012022;28;20008;-69
2022/06/08 01:49:41;;;;;;;;;;;;;;;-142.75;100.00;76363.59;5011732;28;19921;-69
2022/06/08 01:52:30;;;;;;;;;;;;;;;-142.75;100.00;76361.63;4993421;28;20353;-69
2022/06/08 01:55:01;;;;;;;;;;;;;;;-142.75;100.00;76361.63;4983759;28;19921;-69
2022/06/08 01:57:44;;;;;;;;;;;;;;;-142.75;100.00;76353.78;4994053;28;19917;-68
2022/06/08 02:00:16;;;;;;;;;;;;;;;-142.75;100.00;76361.63;5012244;28;20379;-67
2022/06/08 02:02:53;;;;;;;;;;;;;;;-142.75;100.00;76365.56;4993988;28;19917;-68
2022/06/08 02:05:28;;;;;;;;;;;;;;;-142.75;100.00;76367.53;5011682;28;20428;-68
2022/06/08 02:08:16;;;;;;;;;;;;;;;-142.75;100.00;76367.53;5011377;28;20338;-66
2022/06/08 02:10:57;;;;;;;;;;;;;;;-142.75;100.00;76367.53;5003183;28;20375;-70
2022/06/08 02:13:31;;;;;;;;;;;;;;;-142.75;100.00;76373.44;5011538;28;20369;-68
2022/06/08 02:16:00;;;;;;;;;;;;;;;-142.75;100.00;76373.44;5011411;28;20403;-68
2022/06/08 02:18:31;;;;;;;;;;;;;;;-142.75;100.00;76369.50;5011307;28;19925;-68
2022/06/08 02:20:56;;;;;;;;;;;;;;;-142.75;100.00;76365.56;5011574;28;19949;-68
2022/06/08 02:23:24;;;;;;;;;;;;;;;-142.75;100.00;76367.53;5011755;28;19995;-69
2022/06/08 02:25:56;;;;;;;;;;;;;;;-142.75;100.00;76369.50;5010901;28;20132;-69
2022/06/08 02:28:21;;;;;;;;;;;;;;;-142.75;100.00;76361.63;5011387;28;19918;-69
2022/06/08 02:30:53;;;;;;;;;;;;;;;-142.75;100.00;76357.69;5011879;28;19923;-69
2022/06/08 02:36:10;;;;;;;;;;;;;;;-142.75;100.00;76363.59;5011166;28;19960;-69
2022/06/08 02:38:39;;;;;;;;;;;;;;;-142.75;100.00;76355.72;5010852;28;20028;-68
2022/06/08 02:41:07;;;;;;;;;;;;;;;-142.75;100.00;76361.63;5010877;28;19921;-69
2022/06/08 02:43:47;;;;;;;;;;;;;;;-142.75;100.00;76353.78;5010994;28;20071;-69
2022/06/08 02:46:25;;;;;;;;;;;;;;;-142.75;100.00;76361.63;5010969;28;19921;-69
2022/06/08 02:48:51;;;;;;;;;;;;;;;-142.75;100.00;76353.78;5010570;28;19918;-69
2022/06/08 02:51:16;;;;;;;;;;;;;;;-142.75;100.00;76353.78;5010840;28;19918;-68
2022/06/08 02:54:00;;;;;;;;;;;;;;;-142.75;100.00;76351.81;5010951;28;19925;-68
2022/06/08 02:56:37;;;;;;;;;;;;;;;-142.75;100.00;76343.94;5010889;28;19972;-69
2022/06/08 02:59:09;;;;;;;;;;;;;;;-142.75;100.00;76340.00;5010528;28;19933;-70
2022/06/08 03:01:54;;;;;;;;;;;;;;;-142.75;100.00;76341.97;5011300;28;19980;-68
2022/06/08 03:04:22;;;;;;;;;;;;;;;-142.75;100.00;76336.06;5008948;28;19917;-69
2022/06/08 03:06:53;;;;;;;;;;;;;;;-142.75;100.00;76330.16;5010792;28;19960;-70
2022/06/08 03:09:18;;;;;;;;;;;;;;;-142.75;100.00;76326.22;5010216;28;19917;-68
2022/06/08 03:11:50;;;;;;;;;;;;;;;-142.75;100.00;76324.25;5010755;28;20299;-68
2022/06/08 03:14:16;;;;;;;;;;;;;;;-142.75;100.00;76330.16;5010500;28;19926;-68
2022/06/08 03:16:52;;;;;;;;;;;;;;;-142.75;100.00;76334.09;5010859;28;19917;-66
2022/06/08 03:19:18;;;;;;;;;;;;;;;-142.75;100.00;76338.03;5010304;28;19924;-68
2022/06/08 03:21:43;;;;;;;;;;;;;;;-142.75;100.00;76330.16;5010507;28;19921;-68
2022/06/08 03:24:09;;;;;;;;;;;;;;;-142.75;100.00;76328.19;5010555;28;20008;-69
2022/06/08 03:26:39;;;;;;;;;;;;;;;-142.75;100.00;76326.22;5010734;28;19929;-69
2022/06/08 03:29:05;;;;;;;;;;;;;;;-142.75;100.00;76316.38;5010384;28;19925;-69
2022/06/08 03:31:31;;;;;;;;;;;;;;;-142.75;100.00;76310.47;5011063;28;19918;-68
2022/06/08 03:33:56;;;;;;;;;;;;;;;-142.75;100.00;76314.41;5010578;28;19917;-69
2022/06/08 03:36:21;;;;;;;;;;;;;;;-142.75;100.00;76312.44;5010573;28;19960;-69
2022/06/08 03:38:46;;;;;;;;;;;;;;;-142.75;100.00;76310.47;5010235;28;19976;-68
2022/06/08 03:41:11;;;;;;;;;;;;;;;-142.75;100.00;76314.41;5010356;28;19924;-68
2022/06/08 03:43:37;;;;;;;;;;;;;;;-142.75;100.00;76310.47;5010590;28;19918;-69
2022/06/08 03:46:05;;;;;;;;;;;;;;;-142.75;100.00;76312.44;5010262;28;19956;-68
2022/06/08 03:48:30;;;;;;;;;;;;;;;-142.75;100.00;76310.47;5010270;28;20311;-69
2022/06/08 03:50:56;;;;;;;;;;;;;;;-142.75;100.00;76318.34;5010101;28;19918;-67
2022/06/08 03:53:24;;;;;;;;;;;;;;;-142.75;100.00;76310.47;5010433;28;19924;-69
2022/06/08 03:55:51;;;;;;;;;;;;;;;-142.75;100.00;76302.59;5010398;28;20363;-66
2022/06/08 03:58:17;;;;;;;;;;;;;;;-142.75;100.00;76290.78;5010166;28;19918;-68
2022/06/08 04:00:43;;;;;;;;;;;;;;;-142.75;100.00;76292.75;5010718;28;20418;-68
2022/06/08 04:03:09;;;;;;;;;;;;;;;-142.75;100.00;76298.66;5010350;28;19925;-69
2022/06/08 04:05:34;;;;;;;;;;;;;;;-142.75;100.00;76302.59;5010130;28;19925;-68
2022/06/08 04:07:59;;;;;;;;;;;;;;;-142.75;100.00;76300.63;5010114;28;19924;-68
2022/06/08 04:10:25;;;;;;;;;;;;;;;-142.75;100.00;76290.78;5034146;23;19952;-69
2022/06/08 04:12:50;;;;;;;;;;;;;;;-142.75;100.00;76286.84;5027602;28;19921;-70
2022/06/08 04:15:41;;;;;;;;;;;;;;;-142.75;100.00;76290.78;5029776;28;19917;-68
2022/06/08 04:18:00;;;;;;;;;;;;;;;-142.75;100.00;76294.72;5022983;28;19998;-69
2022/06/08 04:20:26;;;;;;;;;;;;;;;-142.75;100.00;76294.72;4995925;28;20383;-69
2022/06/08 04:22:51;;;;;;;;;;;;;;;-142.75;100.00;76294.72;5032633;28;20268;-70
2022/06/08 04:25:16;;;;;;;;;;;;;;;-142.75;100.00;76290.78;5033373;28;20326;-69
2022/06/08 04:27:41;;;;;;;;;;;;;;;-142.75;100.00;76286.84;5033056;28;19940;-71
2022/06/08 04:30:07;;;;;;;;;;;;;;;-142.75;100.00;76286.84;5033471;28;20414;-69
2022/06/08 04:32:32;;;;;;;;;;;;;;;-142.75;100.00;76294.72;5033191;28;20314;-70
2022/06/08 04:34:57;;;;;;;;;;;;;;;-142.75;100.00;76284.88;5033080;28;19924;-69
2022/06/08 04:37:23;;;;;;;;;;;;;;;-142.75;100.00;76288.81;5033085;28;19917;-69
2022/06/08 04:39:48;;;;;;;;;;;;;;;-142.75;100.00;76300.63;5014874;28;20290;-69
2022/06/08 04:42:13;;;;;;;;;;;;;;;-142.75;100.00;76302.59;5033190;28;19917;-67
2022/06/08 04:44:39;;;;;;;;;;;;;;;-142.75;100.00;76314.41;5032416;28;19917;-69
2022/06/08 04:47:04;;;;;;;;;;;;;;;-142.75;100.00;76302.59;5032997;28;19917;-69
2022/06/08 04:49:29;;;;;;;;;;;;;;;-142.75;100.00;76304.56;5032426;28;20390;-69
2022/06/08 04:51:55;;;;;;;;;;;;;;;-142.75;100.00;76288.81;5032698;28;19917;-69
2022/06/08 04:54:20;;;;;;;;;;;;;;;-142.75;100.00;76290.78;5032824;28;19964;-70
2022/06/08 04:56:46;;;;;;;;;;;;;;;-142.75;100.00;76284.88;5032880;28;19916;-71
2022/06/08 04:59:11;;;;;;;;;;;;;;;-142.75;100.00;76275.03;5032238;28;19921;-69
2022/06/08 05:01:36;;;;;;;;;;;;;;;-142.75;100.00;76271.09;5033178;28;20019;-69
2022/06/08 05:04:01;;;;;;;;;;;;;;;-142.75;100.00;76263.22;5014560;28;19917;-69
2022/06/08 05:06:27;;;;;;;;;;;;;;;-142.75;100.00;76259.28;5032284;28;19929;-69
2022/06/08 05:08:52;;;;;;;;;;;;;;;-142.75;100.00;76265.19;5032036;28;19967;-70
2022/06/08 05:11:17;;;;;;;;;;;;;;;-142.75;100.00;76259.28;5032352;28;19956;-69
2022/06/08 05:13:43;;;;;;;;;;;;;;;-142.75;100.00;76255.34;5032139;28;20348;-70
2022/06/08 05:16:08;;;;;;;;;;;;;;;-142.75;100.00;76249.44;5032737;28;19917;-69
2022/06/08 05:18:34;;;;;;;;;;;;;;;-142.75;100.00;76239.59;5013004;28;20008;-69
2022/06/08 05:20:59;;;;;;;;;;;;;;;-142.75;100.00;76243.53;5012257;28;19960;-69
2022/06/08 05:23:26;;;;;;;;;;;;;;;-142.75;100.00;76241.56;5030947;28;20005;-69
2022/06/08 05:25:52;;;;;;;;;;;;;;;-142.75;100.00;76235.66;5031939;28;19925;-69
2022/06/08 05:28:18;;;;;;;;;;;;;;;-142.75;100.00;76225.81;5030777;28;19992;-70
2022/06/08 05:30:43;;;;;;;;;;;;;;;-142.75;100.00;76221.88;5032583;28;20019;-69
2022/06/08 05:33:10;;;;;;;;;;;;;;;-142.75;100.00;76212.03;5031930;28;19917;-70
2022/06/08 05:35:35;;;;;;;;;;;;;;;-142.75;100.00;76208.09;5031865;28;19921;-69
2022/06/08 05:38:01;;;;;;;;;;;;;;;-142.75;100.00;76198.28;5031474;28;20047;-70
2022/06/08 05:40:28;;;;;;;;;;;;;;;-142.75;100.00;76196.31;5031297;28;19924;-69
2022/06/08 05:42:54;;;;;;;;;;;;;;;-142.75;100.00;76186.47;5031187;28;19917;-69
2022/06/08 05:45:21;;;;;;;;;;;;;;;-142.75;100.00;76176.63;5030942;28;19974;-69
2022/06/08 05:47:47;;;;;;;;;;;;;;;-142.75;100.00;76156.94;5030827;28;19968;-68
2022/06/08 05:50:12;;;;;;;;;;;;;;;-142.75;100.00;76143.16;5030737;28;20395;-70
2022/06/08 05:52:37;;;;;;;;;;;;;;;-142.75;100.00;76133.31;5030932;28;20379;-70
2022/06/08 05:55:03;;;;;;;;;;;;;;;-142.75;100.00;76125.44;5030712;28;19917;-69
2022/06/08 05:57:28;;;;;;;;;;;;;;;-142.75;100.00;76117.56;5030838;28;19917;-70
2022/06/08 05:59:53;;;;;;;;;;;;;;;-142.75;100.00;76107.72;5031170;28;20027;-71
2022/06/08 06:02:19;;;;;;;;;;;;;;;-142.75;100.00;76093.94;5030271;28;19917;-70
2022/06/08 06:04:44;;;;;;;;;;;;;;;-142.75;100.00;76082.13;5012111;28;19917;-71
2022/06/08 06:07:11;;;;;;;;;;;;;;;-142.75;100.00;76082.13;5031576;28;19923;-70
2022/06/08 06:09:36;;;;;;;;;;;;;;;-142.75;100.00;76088.03;5026643;28;19964;-71
2022/06/08 06:12:02;;;;;;;;;;;;;;;-142.75;100.00;76078.19;5029863;28;19917;-69
2022/06/08 06:14:27;;;;;;;;;;;;;;;-142.75;100.00;76070.34;5031150;28;19917;-70
2022/06/08 06:16:52;;;;;;;;;;;;;;;-142.75;100.00;76054.59;5012957;28;19917;-70
2022/06/08 06:19:17;;;;;;;;;;;;;;;-142.75;100.00;76048.69;5029838;28;20294;-69
2022/06/08 06:21:43;;;;;;;;;;;;;;;-142.75;100.00;76042.78;5031648;28;20000;-69
2022/06/08 06:24:08;;;;;;;;;;;;;;;-142.75;100.00;76032.94;5031703;28;19917;-70
2022/06/08 06:26:33;;;;;;;;;;;;;;;-142.75;100.00;76023.09;5031613;28;19921;-69
2022/06/08 06:28:59;;;;;;;;;;;;;;;-142.75;100.00;76023.09;5031386;28;19924;-69
2022/06/08 06:31:28;;;;;;;;;;;;;;;-142.75;100.00;76019.16;5031811;28;19917;-69
2022/06/08 06:33:53;;;;;;;;;;;;;;;-142.75;100.00;76017.19;5031596;28;19917;-69
2022/06/08 06:36:18;;;;;;;;;;;;;;;-142.75;100.00;76017.19;5031468;28;19924;-69
2022/06/08 06:38:43;;;;;;;;;;;;;;;-142.75;100.00;76021.13;5021383;28;20255;-69
2022/06/08 06:41:12;;;;;;;;;;;;;;;-142.75;100.00;76025.06;4992511;28;19929;-69
2022/06/08 06:43:37;;;;;;;;;;;;;;;-142.75;100.00;76019.16;5010565;28;19964;-68
2022/06/08 06:46:03;;;;;;;;;;;;;;;-142.75;100.00;76019.16;5010428;28;20378;-68
2022/06/08 06:48:28;;;;;;;;;;;;;;;-142.75;100.00;76011.28;5010295;28;20036;-69
2022/06/08 06:50:53;;;;;;;;;;;;;;;-142.75;100.00;76003.41;5010637;28;19960;-69
2022/06/08 06:53:19;;;;;;;;;;;;;;;-142.75;100.00;76013.25;5010600;28;19963;-68
2022/06/08 06:55:44;;;;;;;;;;;;;;;-142.75;100.00;76015.22;5010457;28;19971;-69
2022/06/08 06:58:09;;;;;;;;;;;;;;;-142.75;100.00;76005.38;5010171;28;19935;-70
2022/06/08 07:00:34;;;;;;;;;;;;;;;-142.75;100.00;75995.53;5010570;28;19963;-69
2022/06/08 07:03:00;;;;;;;;;;;;;;;-142.75;100.00;75979.78;5012993;28;20028;-67
2022/06/08 07:05:26;;;;;;;;;;;;;;;-142.75;100.00;75979.78;5010687;28;20383;-69
2022/06/08 07:07:52;;;;;;;;;;;;;;;-142.75;100.00;75971.91;5010327;28;19922;-69
2022/06/08 07:10:18;;;;;;;;;;;;;;;-142.75;100.00;75967.97;5010005;28;19924;-69
2022/06/08 07:12:43;;;;;;;;;;;;;;;-142.75;100.00;75948.31;5010626;28;20424;-70
2022/06/08 07:15:11;;;;;;;;;;;;;;;-142.75;100.00;75938.47;5010621;28;20040;-68
2022/06/08 07:17:36;;;;;;;;;;;;;;;-142.75;100.00;75928.63;5010366;28;20385;-70
2022/06/08 07:20:04;;;;;;;;;;;;;;;-142.75;100.00;75908.94;4992422;28;20008;-70
2022/06/08 07:22:29;;;;;;;;;;;;;;;-142.75;100.00;75889.25;5009967;28;19932;-69
2022/06/08 07:24:54;;;;;;;;;;;;;;;-142.75;100.00;75877.44;5009865;28;20345;-69
2022/06/08 07:27:20;;;;;;;;;;;;;;;-142.75;100.00;75883.34;5010486;28;19983;-68
2022/06/08 07:29:45;;;;;;;;;;;;;;;-142.75;100.00;75885.31;5016706;28;19926;-69
2022/06/08 07:32:10;;;;;;;;;;;;;;;-142.75;100.00;75897.13;5013479;28;19917;-68
2022/06/08 07:34:35;;;;;;;;;;;;;;;-142.75;100.00;75893.19;5015358;28;19921;-70
2022/06/08 07:37:00;;;;;;;;;;;;;;;-142.75;100.00;75895.16;5029705;28;20012;-69
2022/06/08 07:39:26;;;;;;;;;;;;;;;-142.75;100.00;75910.91;5029450;28;20055;-67
2022/06/08 07:41:52;;;;;;;;;;;;;;;-142.75;100.00;75924.69;5011803;28;20398;-68
2022/06/08 07:44:18;;;;;;;;;;;;;;;-142.75;100.00;75916.81;5029694;28;19924;-68
2022/06/08 07:46:44;;;;;;;;;;;;;;;-142.75;100.00;75908.94;4995169;28;19933;-68
2022/06/08 07:51:57;;;;;;;;;;;;;;;-142.75;100.00;75883.34;5013401;28;19924;-68
2022/06/08 07:54:24;;;;;;;;;;;;;;;-142.75;100.00;75840.06;5013568;28;20020;-68
2022/06/08 07:56:51;;;;;;;;;;;;;;;-142.75;100.00;75812.50;5013646;28;19918;-67
2022/06/08 07:59:16;;;;;;;;;;;;;;;-142.75;100.00;75781.00;5013379;28;19943;-68
2022/06/08 08:01:41;;;;;;;;;;;;;;;-142.75;100.00;75763.28;5031398;28;19917;-69
2022/06/08 08:04:07;;;;;;;;;;;;;;;-142.75;100.00;75767.22;5032654;28;19929;-68
2022/06/08 08:06:32;;;;;;;;;;;;;;;-142.75;100.00;75735.75;5014966;28;19921;-68
2022/06/08 08:09:00;;;;;;;;;;;;;;;-142.75;100.00;75721.97;5031613;28;19917;-68
2022/06/08 08:11:26;;;;;;;;;;;;;;;-142.75;100.00;75735.75;5033073;28;19924;-68
2022/06/08 08:13:51;;;;;;;;;;;;;;;-142.75;100.00;75749.53;5034213;28;19917;-68
2022/06/08 08:16:17;;;;;;;;;;;;;;;-142.75;100.00;75735.75;5034087;28;19917;-67
2022/06/08 08:18:42;;;;;;;;;;;;;;;-142.75;100.00;75743.63;5033816;28;19917;-68
2022/06/08 08:21:07;;;;;;;;;;;;;;;-142.75;100.00;75723.94;5033949;28;19924;-68
2022/06/08 08:23:33;;;;;;;;;;;;;;;-142.75;100.00;75743.63;5033992;28;19968;-67
2022/06/08 08:25:58;;;;;;;;;;;;;;;-142.75;100.00;75751.50;5033826;28;19928;-67
2022/06/08 08:28:23;;;;;;;;;;;;;;;-142.75;100.00;75731.81;5033422;28;19991;-68
2022/06/08 08:30:48;;;;;;;;;;;;;;;-142.75;100.00;75729.84;5033803;28;20429;-69
2022/06/08 08:33:14;;;;;;;;;;;;;;;-142.75;100.00;75720.00;5033646;28;20290;-67
2022/06/08 08:35:39;;;;;;;;;;;;;;;-142.75;100.00;75716.06;5033868;28;20027;-69
2022/06/08 08:38:05;;;;;;;;;;;;;;;-142.75;100.00;75718.03;5033443;28;19963;-69
2022/06/08 08:40:30;;;;;;;;;;;;;;;-142.75;100.00;75720.00;5033595;28;19923;-68
2022/06/08 08:42:56;;;;;;;;;;;;;;;-142.75;100.00;75735.75;5033540;28;19924;-69
2022/06/08 08:45:22;;;;;;;;;;;;;;;-142.75;100.00;75739.69;5033568;28;19929;-69
2022/06/08 08:47:53;;;;;;;;;;;;;;;-142.75;100.00;75761.34;5033306;28;20452;-69
2022/06/08 08:50:20;;;;;;;;;;;;;;;-142.75;100.00;75779.03;5033440;28;19936;-69
2022/06/08 08:52:46;;;;;;;;;;;;;;;-142.75;100.00;75802.66;5033510;28;19924;-68
2022/06/08 08:55:29;;;;;;;;;;;;;;;-142.75;100.00;75828.25;5033351;28;19920;-69
2022/06/08 08:57:57;;;;;;;;;;;;;;;-142.75;100.00;75820.38;5032916;28;19952;-69
2022/06/08 09:00:36;;;;;;;;;;;;;;;-142.75;100.00;75826.28;5015510;28;20452;-68
2022/06/08 09:03:17;;;;;;;;;;;;;;;-142.75;100.00;75838.09;5033097;28;19921;-69
2022/06/08 09:05:44;;;;;;;;;;;;;;;-142.75;100.00;75828.25;5033139;28;20016;-68
2022/06/08 09:08:13;;;;;;;;;;;;;;;-142.75;100.00;75845.97;5032895;28;19917;-70
2022/06/08 09:10:38;;;;;;;;;;;;;;;-142.75;100.00;75847.94;5032898;28;19923;-69
2022/06/08 09:13:04;;;;;;;;;;;;;;;-142.75;100.00;75844.00;5033236;28;20313;-69
2022/06/08 09:15:41;;;;;;;;;;;;;;;-142.75;100.00;75851.88;5033029;28;19987;-69
2022/06/08 09:18:06;;;;;;;;;;;;;;;-142.75;100.00;75845.97;5032716;28;19960;-69
2022/06/08 09:20:33;;;;;;;;;;;;;;;-142.75;100.00;75845.97;5032717;28;20405;-69
2022/06/08 09:23:18;;;;;;;;;;;;;;;-142.75;100.00;75857.78;5032959;28;19971;-69
2022/06/08 09:25:43;;;;;;;;;;;;;;;-142.75;100.00;75859.72;5015219;28;19929;-69
2022/06/08 09:28:28;;;;;;;;;;;;;;;-142.75;100.00;75865.63;5032595;28;19917;-69
2022/06/08 09:30:54;;;;;;;;;;;;;;;-142.75;100.00;75891.22;5032781;28;19917;-68
2022/06/08 09:33:37;;;;;;;;;;;;;;;-142.75;100.00;75893.19;5033177;28;19924;-69
2022/06/08 09:36:05;;;;;;;;;;;;;;;-142.75;100.00;75891.22;5012961;28;19923;-68
2022/06/08 09:38:34;;;;;;;;;;;;;;;-142.75;100.00;75883.34;5012482;28;20410;-69
2022/06/08 09:41:15;;;;;;;;;;;;;;;-142.75;100.00;75918.78;4995003;28;19925;-70
2022/06/08 09:43:49;;;;;;;;;;;;;;;-142.75;100.00;75926.66;5032159;28;19917;-68
2022/06/08 09:46:24;;;;;;;;;;;;;;;-142.75;100.00;75946.34;5032357;28;19921;-69
2022/06/08 09:51:33;;;;;;;;;;;;;;;-142.75;100.00;75973.88;5020535;28;19971;-69
2022/06/08 09:53:58;;;;;;;;;;;;;;;-142.75;100.00;75975.84;5032166;28;19952;-68
2022/06/08 09:56:32;;;;;;;;;;;;;;;-142.75;100.00;75987.66;5032207;28;19923;-67
2022/06/08 09:59:17;;;;;;;;;;;;;;;-142.75;100.00;76007.34;5014052;28;20395;-68
2022/06/08 10:01:46;;;;;;;;;;;;;;;-142.75;100.00;76023.09;5032010;28;20509;-68
2022/06/08 10:04:20;;;;;;;;;;;;;;;-142.75;100.00;76030.97;5032046;28;20015;-68
2022/06/08 10:06:51;;;;;;;;;;;;;;;-142.75;100.00;76038.84;5032041;28;20012;-68
2022/06/08 10:09:28;;;;;;;;;;;;;;;-142.75;100.00;76038.84;5031910;28;19943;-68
2022/06/08 10:11:59;;;;;;;;;;;;;;;-142.75;100.00;76034.91;5053366;23;19929;-66
2022/06/08 10:14:37;;;;;;;;;;;;;;;-142.75;100.00;76058.53;5030139;28;20390;-66
2022/06/08 10:17:09;;;;;;;;;;;;;;;-142.75;100.00;76078.19;5031895;28;19931;-67
2022/06/08 10:19:40;;;;;;;;;;;;;;;-142.75;100.00;76068.38;5050734;28;19950;-66
2022/06/08 10:22:05;;;;;;;;;;;;;;;-142.75;100.00;76090.00;5051681;28;19917;-66
2022/06/08 10:24:34;;;;;;;;;;;;;;;-142.75;100.00;76103.78;5051620;28;19917;-66
2022/06/08 10:27:29;;;;;;;;;;;;;;;-142.75;100.00;76129.38;5051576;28;19940;-66
2022/06/08 10:30:13;;;;;;;;;;;;;;;-142.75;100.00;76149.06;5042276;28;19916;-64
2022/06/08 10:32:44;;;;;;;;;;;;;;;-142.75;100.00;76151.03;5051554;28;19917;-65
2022/06/08 10:35:16;;;;;;;;;;;;;;;-142.75;100.00;76149.06;5051545;28;20042;-66
2022/06/08 10:37:42;;;;;;;;;;;;;;;-142.75;100.00;76160.88;5051436;28;19916;-62
2022/06/08 10:40:08;;;;;;;;;;;;;;;-142.75;100.00;76156.94;5051194;28;19917;-66
2022/06/08 10:42:39;;;;;;;;;;;;;;;-142.75;100.00;76156.94;5051343;28;20275;-66
2022/06/08 10:45:19;;;;;;;;;;;;;;;-142.75;100.00;76164.81;5051290;28;19943;-66
2022/06/08 10:47:52;;;;;;;;;;;;;;;-142.75;100.00;76154.97;5051103;28;20444;-63
2022/06/08 10:50:35;;;;;;;;;;;;;;;-142.75;100.00;76180.56;5050052;28;19917;-65
2022/06/08 10:56:23;;;;;;;;;;;;;;;-142.75;100.00;76192.38;5051194;28;19927;-66
2022/06/08 10:59:12;;;;;;;;;;;;;;;-142.75;100.00;76178.59;5050846;28;19916;-66
2022/06/08 11:01:49;;;;;;;;;;;;;;;-142.75;100.00;76168.75;5051067;28;19917;-66
2022/06/08 11:04:27;;;;;;;;;;;;;;;-142.75;100.00;76174.66;5051176;28;19916;-66
2022/06/08 11:06:55;;;;;;;;;;;;;;;-142.75;100.00;76178.59;5051059;28;19920;-66
2022/06/08 11:09:32;;;;;;;;;;;;;;;-142.75;100.00;76190.41;5050694;28;19962;-66
2022/06/08 11:12:04;;;;;;;;;;;;;;;-142.75;100.00;76194.34;5049680;28;19969;-64
2022/06/08 11:14:51;;;;;;;;;;;;;;;-142.75;100.00;76196.31;5051072;28;20413;-66
2022/06/08 11:17:22;;;;;;;;;;;;;;;-142.75;100.00;76210.06;5051087;28;19995;-66
2022/06/08 11:19:47;;;;;;;;;;;;;;;-142.75;100.00;76194.34;5050739;28;19917;-65
2022/06/08 11:22:19;;;;;;;;;;;;;;;-142.75;100.00;76208.09;5050966;28;19932;-66
2022/06/08 11:24:48;;;;;;;;;;;;;;;-142.75;100.00;76212.03;5052274;28;19928;-66
2022/06/08 11:27:33;;;;;;;;;;;;;;;-142.75;100.00;76217.94;5055000;28;19978;-66
2022/06/08 11:30:25;;;;;;;;;;;;;;;-142.75;100.00;76233.69;5054366;28;20015;-66
2022/06/08 11:32:50;;;;;;;;;;;;;;;-142.75;100.00;76223.84;5038716;28;20401;-65
2022/06/08 11:35:39;;;;;;;;;;;;;;;-142.75;100.00;76210.06;5054885;28;19917;-67
2022/06/08 11:38:23;;;;;;;;;;;;;;;-142.75;100.00;76219.91;5054564;28;19966;-66
2022/06/08 11:40:48;;;;;;;;;;;;;;;-142.75;100.00;76223.84;5054661;28;20387;-66
2022/06/08 11:43:14;;;;;;;;;;;;;;;-142.75;100.00;76229.75;5054666;28;19971;-66
2022/06/08 11:45:39;;;;;;;;;;;;;;;-142.75;100.00;76225.81;5054689;28;19924;-65
2022/06/08 11:48:08;;;;;;;;;;;;;;;-142.75;100.00;76219.91;5054130;28;20386;-70
2022/06/08 11:50:42;;;;;;;;;;;;;;;-142.75;100.00;76225.81;5035226;28;20410;-66
2022/06/08 11:53:14;;;;;;;;;;;;;;;-142.75;100.00;76215.97;5034506;28;19921;-66
2022/06/08 11:55:49;;;;;;;;;;;;;;;-142.75;100.00;76202.19;5034722;28;19923;-65
2022/06/08 11:58:27;;;;;;;;;;;;;;;-142.75;100.00;76200.25;5033356;28;19917;-66
2022/06/08 12:00:55;;;;;;;;;;;;;;;-142.75;100.00;76190.41;5034444;28;19917;-65
2022/06/08 12:03:27;;;;;;;;;;;;;;;-142.75;100.00;76202.19;5034468;28;20345;-66
2022/06/08 12:06:01;;;;;;;;;;;;;;;-142.75;100.00;76190.41;5034313;28;19921;-66
2022/06/08 12:08:30;;;;;;;;;;;;;;;-142.75;100.00;76180.56;5032510;28;20003;-65
2022/06/08 12:10:58;;;;;;;;;;;;;;;-142.75;100.00;76186.47;5033467;28;19983;-63
2022/06/08 12:13:23;;;;;;;;;;;;;;;-142.75;100.00;76180.56;5033520;28;19960;-66
2022/06/08 12:15:52;;;;;;;;;;;;;;;-142.75;100.00;76174.66;5033930;28;20414;-66
2022/06/08 12:18:20;;;;;;;;;;;;;;;-142.75;100.00;76180.56;5033812;28;19917;-65
2022/06/08 12:20:46;;;;;;;;;;;;;;;-142.75;100.00;76188.44;5033948;28;19917;-66
2022/06/08 12:23:12;;;;;;;;;;;;;;;-142.75;100.00;76174.66;5034030;28;20059;-67
2022/06/08 12:25:37;;;;;;;;;;;;;;;-142.75;100.00;76170.72;5034034;28;20263;-67
2022/06/08 12:28:16;;;;;;;;;;;;;;;-142.75;100.00;76156.94;5033630;28;19917;-66
2022/06/08 12:30:44;;;;;;;;;;;;;;;-142.75;100.00;76164.81;5033902;28;19917;-65
2022/06/08 12:33:18;;;;;;;;;;;;;;;-142.75;100.00;76168.75;5033823;28;20063;-64
2022/06/08 12:35:56;;;;;;;;;;;;;;;-142.75;100.00;76156.94;5033407;28;19971;-66
2022/06/08 12:38:29;;;;;;;;;;;;;;;-142.75;100.00;76166.78;5031029;28;20039;-67
2022/06/08 12:41:10;;;;;;;;;;;;;;;-142.75;100.00;76170.72;5032648;28;19925;-66